Hlavní strana
METAR-TAF:

METAR-TAF

Letiště :

Mezinárodní letiště Ta-lien Čou-šuej-c’

Ta-lien, Čína

zeměpisná šířka: 38-54N, zeměpisná délka: 121-38E, výška: 97 m

Aktuální stav počasí

Zpráva byla vytvořena před 19 minutami, v 02:30 UTC
Západní vítr 12 kt
Teplota 8°C
Vlhkost vzduchu 27%
Tlak 1024 hPa
Viditelnost 10 km a více
Žádná oblačnost pod 1500 m, nevyskytují se cumulonimby.

METAR: ZYTL 220230Z 27006MPS CAVOK 08/M10 Q1024 NOSIG

Čas: 10:49 (02:49 UTC)

Předpověď počasí

Zpráva byla vytvořena před 7 hodinami a 34 minutami, v 19:15 UTC
Předpověď platná od 22 v 00 UTC do 22 v 24 UTC
Západoseverozápadní vítr 12 kt
Viditelnost 10 km a více
Žádná oblačnost pod 1500 m, nevyskytují se cumulonimby.
Změna
od 22 v 13 UTC do 22 v 14 UTC
Severní vítr 12 kt s nárazy do 23 kt

TAF: ZYTL 211915Z 2200/2224 30006MPS CAVOK TX07/2206Z TN01/2221Z BECMG 2213/2214 36006G12MPS

Stav a předpovědi počasí z více než 4 000 letišť (zprávy METAR a TAF).

Červené a žluté tečky na mapě představují dostupné meteorologické stanice.

Když kurzor umístíte na tečku, zobrazí se název stanice.

Pak kliknutím zobrazíte stav a předpověď počasí.

Chcete-li změnit mapu, kliknutím na zelené tlačítko se znaménkem +mapu přiblížíte, kliknutím na zelené tlačítko se znaménkem – mapu oddálíte a kliknutím na zelené šipky přejdete na sousední mapy.


METAR-TAF: